sensor_id;sensor_type;location;lat;lon;timestamp;P1;durP1;ratioP1;P2;durP2;ratioP2
70605;SDS011;58173;52.500;5.494;2023-03-14T00:01:29;11.85;;;2.55;;
70605;SDS011;58173;52.500;5.494;2023-03-14T00:03:56;11.68;;;2.22;;
70605;SDS011;58173;52.500;5.494;2023-03-14T00:06:23;14.00;;;2.85;;
70605;SDS011;58173;52.500;5.494;2023-03-14T00:08:50;14.15;;;2.65;;
70605;SDS011;58173;52.500;5.494;2023-03-14T00:11:19;14.48;;;2.20;;
70605;SDS011;58173;52.500;5.494;2023-03-14T00:13:47;14.45;;;2.33;;
70605;SDS011;58173;52.500;5.494;2023-03-14T00:16:15;11.68;;;2.65;;
70605;SDS011;58173;52.500;5.494;2023-03-14T00:18:42;15.05;;;2.53;;
70605;SDS011;58173;52.500;5.494;2023-03-14T00:21:10;13.93;;;2.20;;
70605;SDS011;58173;52.500;5.494;2023-03-14T00:23:38;15.60;;;2.55;;
70605;SDS011;58173;52.500;5.494;2023-03-14T00:26:11;13.32;;;2.17;;
70605;SDS011;58173;52.500;5.494;2023-03-14T00:28:40;11.95;;;1.83;;
70605;SDS011;58173;52.500;5.494;2023-03-14T00:31:09;14.05;;;2.72;;
70605;SDS011;58173;52.500;5.494;2023-03-14T00:33:39;13.82;;;2.15;;
70605;SDS011;58173;52.500;5.494;2023-03-14T00:36:10;12.00;;;2.40;;
70605;SDS011;58173;52.500;5.494;2023-03-14T00:38:39;11.68;;;2.75;;
70605;SDS011;58173;52.500;5.494;2023-03-14T00:41:08;10.20;;;1.70;;
70605;SDS011;58173;52.500;5.494;2023-03-14T00:43:37;10.73;;;2.05;;
70605;SDS011;58173;52.500;5.494;2023-03-14T00:46:04;11.02;;;2.00;;
70605;SDS011;58173;52.500;5.494;2023-03-14T00:48:31;14.07;;;2.05;;
70605;SDS011;58173;52.500;5.494;2023-03-14T00:50:59;12.10;;;1.85;;
70605;SDS011;58173;52.500;5.494;2023-03-14T00:53:26;9.77;;;1.90;;
70605;SDS011;58173;52.500;5.494;2023-03-14T00:55:53;8.88;;;1.80;;
70605;SDS011;58173;52.500;5.494;2023-03-14T00:58:20;9.80;;;1.70;;
70605;SDS011;58173;52.500;5.494;2023-03-14T01:00:47;10.40;;;1.70;;
70605;SDS011;58173;52.500;5.494;2023-03-14T01:03:14;12.23;;;1.90;;
70605;SDS011;58173;52.500;5.494;2023-03-14T01:05:41;11.52;;;2.13;;
70605;SDS011;58173;52.500;5.494;2023-03-14T01:08:08;11.40;;;2.03;;
70605;SDS011;58173;52.500;5.494;2023-03-14T01:10:39;9.90;;;2.17;;
70605;SDS011;58173;52.500;5.494;2023-03-14T01:13:07;9.63;;;1.88;;
70605;SDS011;58173;52.500;5.494;2023-03-14T01:15:40;8.38;;;1.90;;
70605;SDS011;58173;52.500;5.494;2023-03-14T01:18:10;14.27;;;1.85;;
70605;SDS011;58173;52.500;5.494;2023-03-14T01:20:37;10.07;;;1.70;;
70605;SDS011;58173;52.500;5.494;2023-03-14T01:23:04;7.43;;;1.88;;
70605;SDS011;58173;52.500;5.494;2023-03-14T01:25:30;9.57;;;1.65;;
70605;SDS011;58173;52.500;5.494;2023-03-14T01:27:57;11.80;;;1.80;;
70605;SDS011;58173;52.500;5.494;2023-03-14T01:30:24;10.77;;;1.70;;
70605;SDS011;58173;52.500;5.494;2023-03-14T01:32:51;7.78;;;1.70;;
70605;SDS011;58173;52.500;5.494;2023-03-14T01:35:18;6.95;;;1.70;;
70605;SDS011;58173;52.500;5.494;2023-03-14T01:37:45;10.05;;;1.95;;
70605;SDS011;58173;52.500;5.494;2023-03-14T01:40:17;8.02;;;1.80;;
70605;SDS011;58173;52.500;5.494;2023-03-14T01:42:44;9.98;;;1.80;;
70605;SDS011;58173;52.500;5.494;2023-03-14T01:48:27;8.85;;;1.80;;
70605;SDS011;58173;52.500;5.494;2023-03-14T01:50:58;8.95;;;1.77;;
70605;SDS011;58173;52.500;5.494;2023-03-14T01:53:27;9.98;;;2.00;;
70605;SDS011;58173;52.500;5.494;2023-03-14T01:55:55;8.65;;;2.08;;
70605;SDS011;58173;52.500;5.494;2023-03-14T01:58:24;10.80;;;2.20;;
70605;SDS011;58173;52.500;5.494;2023-03-14T02:00:55;10.88;;;2.45;;
70605;SDS011;58173;52.500;5.494;2023-03-14T02:03:25;11.00;;;2.75;;
70605;SDS011;58173;52.500;5.494;2023-03-14T02:05:55;10.98;;;2.10;;
70605;SDS011;58173;52.500;5.494;2023-03-14T02:08:26;13.25;;;2.67;;
70605;SDS011;58173;52.500;5.494;2023-03-14T02:11:00;11.38;;;2.50;;
70605;SDS011;58173;52.500;5.494;2023-03-14T02:13:57;18.35;;;3.10;;
70605;SDS011;58173;52.500;5.494;2023-03-14T02:16:34;13.35;;;2.50;;
70605;SDS011;58173;52.500;5.494;2023-03-14T02:19:20;13.20;;;2.40;;
70605;SDS011;58173;52.500;5.494;2023-03-14T02:22:21;12.43;;;2.25;;
70605;SDS011;58173;52.500;5.494;2023-03-14T02:27:29;12.82;;;2.60;;
70605;SDS011;58173;52.500;5.494;2023-03-14T02:30:05;12.60;;;2.17;;
70605;SDS011;58173;52.500;5.494;2023-03-14T02:32:34;13.95;;;2.85;;
70605;SDS011;58173;52.500;5.494;2023-03-14T02:35:08;15.30;;;2.63;;
70605;SDS011;58173;52.500;5.494;2023-03-14T02:37:42;13.15;;;2.47;;
70605;SDS011;58173;52.500;5.494;2023-03-14T02:40:17;13.88;;;3.13;;
70605;SDS011;58173;52.500;5.494;2023-03-14T02:46:23;14.00;;;2.70;;
70605;SDS011;58173;52.500;5.494;2023-03-14T02:51:38;8.45;;;2.58;;
70605;SDS011;58173;52.500;5.494;2023-03-14T02:54:07;16.58;;;3.17;;
70605;SDS011;58173;52.500;5.494;2023-03-14T02:56:38;12.77;;;2.75;;
70605;SDS011;58173;52.500;5.494;2023-03-14T02:59:06;15.57;;;3.50;;
70605;SDS011;58173;52.500;5.494;2023-03-14T03:01:43;14.55;;;3.45;;
70605;SDS011;58173;52.500;5.494;2023-03-14T03:06:45;11.48;;;2.90;;
70605;SDS011;58173;52.500;5.494;2023-03-14T03:09:12;14.65;;;3.30;;
70605;SDS011;58173;52.500;5.494;2023-03-14T03:11:39;14.40;;;3.22;;
70605;SDS011;58173;52.500;5.494;2023-03-14T03:14:08;12.88;;;3.30;;
70605;SDS011;58173;52.500;5.494;2023-03-14T03:16:35;14.40;;;3.47;;
70605;SDS011;58173;52.500;5.494;2023-03-14T03:19:02;16.55;;;3.53;;
70605;SDS011;58173;52.500;5.494;2023-03-14T03:21:29;10.73;;;2.53;;
70605;SDS011;58173;52.500;5.494;2023-03-14T03:23:56;10.75;;;2.38;;
70605;SDS011;58173;52.500;5.494;2023-03-14T03:26:23;12.45;;;2.58;;
70605;SDS011;58173;52.500;5.494;2023-03-14T03:28:51;12.15;;;3.03;;
70605;SDS011;58173;52.500;5.494;2023-03-14T03:31:18;8.98;;;2.25;;
70605;SDS011;58173;52.500;5.494;2023-03-14T03:33:46;9.30;;;2.28;;
70605;SDS011;58173;52.500;5.494;2023-03-14T03:36:13;11.82;;;2.17;;
70605;SDS011;58173;52.500;5.494;2023-03-14T03:38:40;10.95;;;2.30;;
70605;SDS011;58173;52.500;5.494;2023-03-14T03:41:08;9.40;;;2.20;;
70605;SDS011;58173;52.500;5.494;2023-03-14T03:43:35;10.52;;;2.08;;
70605;SDS011;58173;52.500;5.494;2023-03-14T03:46:04;8.15;;;1.98;;
70605;SDS011;58173;52.500;5.494;2023-03-14T03:48:32;9.32;;;1.95;;
70605;SDS011;58173;52.500;5.494;2023-03-14T03:51:02;12.43;;;1.92;;
70605;SDS011;58173;52.500;5.494;2023-03-14T03:53:30;10.60;;;2.00;;
70605;SDS011;58173;52.500;5.494;2023-03-14T03:56:03;12.27;;;2.45;;
70605;SDS011;58173;52.500;5.494;2023-03-14T03:58:31;10.38;;;2.03;;
70605;SDS011;58173;52.500;5.494;2023-03-14T04:00:58;11.05;;;2.22;;
70605;SDS011;58173;52.500;5.494;2023-03-14T04:03:25;7.82;;;2.13;;
70605;SDS011;58173;52.500;5.494;2023-03-14T04:05:58;10.88;;;2.20;;
70605;SDS011;58173;52.500;5.494;2023-03-14T04:08:31;9.13;;;2.13;;
70605;SDS011;58173;52.500;5.494;2023-03-14T04:10:59;11.57;;;2.70;;
70605;SDS011;58173;52.500;5.494;2023-03-14T04:13:44;8.10;;;2.08;;
70605;SDS011;58173;52.500;5.494;2023-03-14T04:16:14;9.57;;;2.08;;
70605;SDS011;58173;52.500;5.494;2023-03-14T04:18:43;9.90;;;2.13;;
70605;SDS011;58173;52.500;5.494;2023-03-14T04:21:10;9.68;;;2.10;;
70605;SDS011;58173;52.500;5.494;2023-03-14T04:23:46;8.90;;;2.00;;
70605;SDS011;58173;52.500;5.494;2023-03-14T04:26:14;9.95;;;2.30;;
70605;SDS011;58173;52.500;5.494;2023-03-14T04:28:42;10.70;;;2.15;;
70605;SDS011;58173;52.500;5.494;2023-03-14T04:31:11;11.18;;;2.53;;
70605;SDS011;58173;52.500;5.494;2023-03-14T04:33:43;11.85;;;2.17;;
70605;SDS011;58173;52.500;5.494;2023-03-14T04:36:13;10.05;;;2.22;;
70605;SDS011;58173;52.500;5.494;2023-03-14T04:38:41;7.95;;;2.08;;
70605;SDS011;58173;52.500;5.494;2023-03-14T04:41:09;11.73;;;2.42;;
70605;SDS011;58173;52.500;5.494;2023-03-14T04:43:36;13.13;;;2.30;;
70605;SDS011;58173;52.500;5.494;2023-03-14T04:46:07;12.52;;;2.65;;
70605;SDS011;58173;52.500;5.494;2023-03-14T04:48:34;11.55;;;2.30;;
70605;SDS011;58173;52.500;5.494;2023-03-14T04:51:02;10.60;;;2.60;;
70605;SDS011;58173;52.500;5.494;2023-03-14T04:53:31;15.15;;;3.13;;
70605;SDS011;58173;52.500;5.494;2023-03-14T04:56:00;10.95;;;3.25;;
70605;SDS011;58173;52.500;5.494;2023-03-14T04:58:34;14.45;;;2.63;;
70605;SDS011;58173;52.500;5.494;2023-03-14T05:01:03;16.40;;;3.20;;
70605;SDS011;58173;52.500;5.494;2023-03-14T05:03:48;9.93;;;2.35;;
70605;SDS011;58173;52.500;5.494;2023-03-14T05:06:31;14.45;;;2.88;;
70605;SDS011;58173;52.500;5.494;2023-03-14T05:09:07;15.73;;;3.17;;
70605;SDS011;58173;52.500;5.494;2023-03-14T05:11:53;12.25;;;3.50;;
70605;SDS011;58173;52.500;5.494;2023-03-14T05:14:22;8.50;;;2.97;;
70605;SDS011;58173;52.500;5.494;2023-03-14T05:17:14;12.05;;;3.10;;
70605;SDS011;58173;52.500;5.494;2023-03-14T05:19:56;11.45;;;2.90;;
70605;SDS011;58173;52.500;5.494;2023-03-14T05:22:34;15.55;;;2.95;;
70605;SDS011;58173;52.500;5.494;2023-03-14T05:25:04;8.07;;;2.08;;
70605;SDS011;58173;52.500;5.494;2023-03-14T05:27:50;10.50;;;2.72;;
70605;SDS011;58173;52.500;5.494;2023-03-14T05:30:59;9.85;;;2.60;;
70605;SDS011;58173;52.500;5.494;2023-03-14T05:33:43;12.90;;;2.80;;
70605;SDS011;58173;52.500;5.494;2023-03-14T05:36:27;9.15;;;2.50;;
70605;SDS011;58173;52.500;5.494;2023-03-14T05:38:54;7.82;;;2.60;;
70605;SDS011;58173;52.500;5.494;2023-03-14T05:41:28;10.63;;;2.85;;
70605;SDS011;58173;52.500;5.494;2023-03-14T05:44:21;9.75;;;2.17;;
70605;SDS011;58173;52.500;5.494;2023-03-14T05:47:17;9.05;;;2.50;;
70605;SDS011;58173;52.500;5.494;2023-03-14T05:49:57;7.80;;;2.33;;
70605;SDS011;58173;52.500;5.494;2023-03-14T05:52:53;11.38;;;2.42;;
70605;SDS011;58173;52.500;5.494;2023-03-14T05:55:40;18.45;;;2.55;;
70605;SDS011;58173;52.500;5.494;2023-03-14T05:58:30;12.68;;;2.70;;
70605;SDS011;58173;52.500;5.494;2023-03-14T06:01:17;10.07;;;2.25;;
70605;SDS011;58173;52.500;5.494;2023-03-14T06:04:00;9.63;;;2.53;;
70605;SDS011;58173;52.500;5.494;2023-03-14T06:06:27;9.27;;;2.33;;
70605;SDS011;58173;52.500;5.494;2023-03-14T06:08:54;8.30;;;2.20;;
70605;SDS011;58173;52.500;5.494;2023-03-14T06:11:21;8.40;;;2.15;;
70605;SDS011;58173;52.500;5.494;2023-03-14T06:13:47;12.00;;;2.72;;
70605;SDS011;58173;52.500;5.494;2023-03-14T06:16:14;10.40;;;3.10;;
70605;SDS011;58173;52.500;5.494;2023-03-14T06:18:42;14.48;;;3.50;;
70605;SDS011;58173;52.500;5.494;2023-03-14T06:21:11;10.77;;;1.80;;
70605;SDS011;58173;52.500;5.494;2023-03-14T06:23:38;8.40;;;1.50;;
70605;SDS011;58173;52.500;5.494;2023-03-14T06:26:05;6.65;;;1.20;;
70605;SDS011;58173;52.500;5.494;2023-03-14T06:28:32;7.93;;;1.13;;
70605;SDS011;58173;52.500;5.494;2023-03-14T06:31:01;8.27;;;1.17;;
70605;SDS011;58173;52.500;5.494;2023-03-14T06:33:35;5.45;;;0.93;;
70605;SDS011;58173;52.500;5.494;2023-03-14T06:36:02;8.07;;;1.25;;
70605;SDS011;58173;52.500;5.494;2023-03-14T06:38:30;6.72;;;1.08;;
70605;SDS011;58173;52.500;5.494;2023-03-14T06:41:02;10.45;;;1.40;;
70605;SDS011;58173;52.500;5.494;2023-03-14T06:43:39;9.77;;;1.30;;
70605;SDS011;58173;52.500;5.494;2023-03-14T06:46:08;5.28;;;0.93;;
70605;SDS011;58173;52.500;5.494;2023-03-14T06:48:37;5.18;;;0.80;;
70605;SDS011;58173;52.500;5.494;2023-03-14T06:51:06;8.50;;;1.00;;
70605;SDS011;58173;52.500;5.494;2023-03-14T06:53:33;7.70;;;0.95;;
70605;SDS011;58173;52.500;5.494;2023-03-14T06:56:01;4.53;;;0.90;;
70605;SDS011;58173;52.500;5.494;2023-03-14T06:58:30;4.30;;;0.70;;
70605;SDS011;58173;52.500;5.494;2023-03-14T07:00:58;7.55;;;0.85;;
70605;SDS011;58173;52.500;5.494;2023-03-14T07:03:30;5.80;;;0.85;;
70605;SDS011;58173;52.500;5.494;2023-03-14T07:05:59;5.95;;;1.08;;
70605;SDS011;58173;52.500;5.494;2023-03-14T07:08:26;9.13;;;1.05;;
70605;SDS011;58173;52.500;5.494;2023-03-14T07:10:55;12.85;;;1.60;;
70605;SDS011;58173;52.500;5.494;2023-03-14T07:13:23;12.88;;;1.30;;
70605;SDS011;58173;52.500;5.494;2023-03-14T07:16:09;11.45;;;1.20;;
70605;SDS011;58173;52.500;5.494;2023-03-14T07:18:36;14.10;;;1.20;;
70605;SDS011;58173;52.500;5.494;2023-03-14T07:21:05;9.73;;;1.40;;
70605;SDS011;58173;52.500;5.494;2023-03-14T07:23:33;10.73;;;1.52;;
70605;SDS011;58173;52.500;5.494;2023-03-14T07:26:00;10.52;;;1.33;;
70605;SDS011;58173;52.500;5.494;2023-03-14T07:28:29;12.10;;;1.30;;
70605;SDS011;58173;52.500;5.494;2023-03-14T07:31:02;12.35;;;1.20;;
70605;SDS011;58173;52.500;5.494;2023-03-14T07:33:31;8.52;;;1.15;;
70605;SDS011;58173;52.500;5.494;2023-03-14T07:35:58;10.57;;;1.10;;
70605;SDS011;58173;52.500;5.494;2023-03-14T07:38:25;10.43;;;1.10;;
70605;SDS011;58173;52.500;5.494;2023-03-14T07:41:12;9.93;;;0.80;;
70605;SDS011;58173;52.500;5.494;2023-03-14T07:43:47;9.98;;;1.00;;
70605;SDS011;58173;52.500;5.494;2023-03-14T07:46:14;6.70;;;0.90;;
70605;SDS011;58173;52.500;5.494;2023-03-14T07:48:41;6.63;;;0.75;;
70605;SDS011;58173;52.500;5.494;2023-03-14T07:51:08;7.05;;;0.98;;
70605;SDS011;58173;52.500;5.494;2023-03-14T07:53:35;7.78;;;0.73;;
70605;SDS011;58173;52.500;5.494;2023-03-14T07:56:02;4.25;;;1.00;;
70605;SDS011;58173;52.500;5.494;2023-03-14T07:58:28;8.02;;;1.00;;
70605;SDS011;58173;52.500;5.494;2023-03-14T08:00:55;6.13;;;1.17;;
70605;SDS011;58173;52.500;5.494;2023-03-14T08:03:24;5.22;;;0.82;;
70605;SDS011;58173;52.500;5.494;2023-03-14T08:05:51;6.50;;;0.70;;
70605;SDS011;58173;52.500;5.494;2023-03-14T08:08:19;4.50;;;0.80;;
70605;SDS011;58173;52.500;5.494;2023-03-14T08:10:46;5.15;;;0.77;;
70605;SDS011;58173;52.500;5.494;2023-03-14T08:13:13;7.70;;;0.73;;
70605;SDS011;58173;52.500;5.494;2023-03-14T08:15:40;6.57;;;0.70;;
70605;SDS011;58173;52.500;5.494;2023-03-14T08:18:07;5.63;;;0.77;;
70605;SDS011;58173;52.500;5.494;2023-03-14T08:20:35;6.78;;;0.93;;
70605;SDS011;58173;52.500;5.494;2023-03-14T08:23:02;4.60;;;0.73;;
70605;SDS011;58173;52.500;5.494;2023-03-14T08:25:29;4.63;;;0.50;;
70605;SDS011;58173;52.500;5.494;2023-03-14T08:27:56;6.50;;;1.23;;
70605;SDS011;58173;52.500;5.494;2023-03-14T08:30:23;6.80;;;0.82;;
70605;SDS011;58173;52.500;5.494;2023-03-14T08:32:50;8.43;;;0.70;;
70605;SDS011;58173;52.500;5.494;2023-03-14T08:35:18;6.00;;;1.00;;
70605;SDS011;58173;52.500;5.494;2023-03-14T08:37:45;11.27;;;1.30;;
70605;SDS011;58173;52.500;5.494;2023-03-14T08:40:13;6.35;;;1.00;;
70605;SDS011;58173;52.500;5.494;2023-03-14T08:42:40;7.75;;;0.90;;
70605;SDS011;58173;52.500;5.494;2023-03-14T08:45:08;7.57;;;1.10;;
70605;SDS011;58173;52.500;5.494;2023-03-14T08:47:38;13.70;;;1.50;;
70605;SDS011;58173;52.500;5.494;2023-03-14T08:50:06;7.95;;;1.10;;
70605;SDS011;58173;52.500;5.494;2023-03-14T08:52:33;9.30;;;1.02;;
70605;SDS011;58173;52.500;5.494;2023-03-14T08:55:00;8.25;;;1.10;;
70605;SDS011;58173;52.500;5.494;2023-03-14T08:57:27;11.48;;;1.20;;
70605;SDS011;58173;52.500;5.494;2023-03-14T08:59:55;12.52;;;1.65;;
70605;SDS011;58173;52.500;5.494;2023-03-14T09:02:23;10.50;;;1.58;;
70605;SDS011;58173;52.500;5.494;2023-03-14T09:04:51;12.30;;;1.73;;
70605;SDS011;58173;52.500;5.494;2023-03-14T09:07:19;10.75;;;1.73;;
70605;SDS011;58173;52.500;5.494;2023-03-14T09:09:46;16.55;;;1.92;;
70605;SDS011;58173;52.500;5.494;2023-03-14T09:12:13;13.65;;;1.92;;
70605;SDS011;58173;52.500;5.494;2023-03-14T09:14:40;10.32;;;1.42;;
70605;SDS011;58173;52.500;5.494;2023-03-14T09:17:07;9.02;;;1.48;;
70605;SDS011;58173;52.500;5.494;2023-03-14T09:19:34;13.02;;;1.75;;
70605;SDS011;58173;52.500;5.494;2023-03-14T09:22:01;14.45;;;1.70;;
70605;SDS011;58173;52.500;5.494;2023-03-14T09:24:29;15.07;;;1.75;;
70605;SDS011;58173;52.500;5.494;2023-03-14T09:26:56;12.70;;;1.70;;
70605;SDS011;58173;52.500;5.494;2023-03-14T09:29:23;16.38;;;1.98;;
70605;SDS011;58173;52.500;5.494;2023-03-14T09:31:50;14.25;;;2.00;;
70605;SDS011;58173;52.500;5.494;2023-03-14T09:34:17;17.27;;;2.05;;
70605;SDS011;58173;52.500;5.494;2023-03-14T09:36:45;13.75;;;1.65;;
70605;SDS011;58173;52.500;5.494;2023-03-14T09:39:12;13.52;;;2.35;;
70605;SDS011;58173;52.500;5.494;2023-03-14T09:41:40;15.13;;;2.00;;
70605;SDS011;58173;52.500;5.494;2023-03-14T09:47:06;10.48;;;1.48;;
70605;SDS011;58173;52.500;5.494;2023-03-14T09:49:37;15.23;;;1.90;;
70605;SDS011;58173;52.500;5.494;2023-03-14T09:52:17;13.02;;;2.45;;
70605;SDS011;58173;52.500;5.494;2023-03-14T09:54:52;17.58;;;1.85;;
70605;SDS011;58173;52.500;5.494;2023-03-14T09:59:48;14.02;;;1.80;;
70605;SDS011;58173;52.500;5.494;2023-03-14T10:04:46;14.90;;;2.53;;
70605;SDS011;58173;52.500;5.494;2023-03-14T10:07:15;14.43;;;2.10;;
70605;SDS011;58173;52.500;5.494;2023-03-14T10:09:47;15.25;;;2.30;;
70605;SDS011;58173;52.500;5.494;2023-03-14T10:12:16;14.98;;;1.90;;
70605;SDS011;58173;52.500;5.494;2023-03-14T10:14:49;17.90;;;2.00;;
70605;SDS011;58173;52.500;5.494;2023-03-14T10:17:18;19.73;;;2.33;;
70605;SDS011;58173;52.500;5.494;2023-03-14T10:19:54;17.35;;;2.50;;
70605;SDS011;58173;52.500;5.494;2023-03-14T10:22:26;13.20;;;2.00;;
70605;SDS011;58173;52.500;5.494;2023-03-14T10:24:57;16.45;;;2.50;;
70605;SDS011;58173;52.500;5.494;2023-03-14T10:27:31;13.32;;;2.63;;
70605;SDS011;58173;52.500;5.494;2023-03-14T10:30:01;22.55;;;2.92;;
70605;SDS011;58173;52.500;5.494;2023-03-14T10:32:35;19.38;;;2.40;;
70605;SDS011;58173;52.500;5.494;2023-03-14T10:35:11;17.38;;;2.03;;
70605;SDS011;58173;52.500;5.494;2023-03-14T10:37:56;17.42;;;2.08;;
70605;SDS011;58173;52.500;5.494;2023-03-14T10:40:26;18.45;;;2.55;;
70605;SDS011;58173;52.500;5.494;2023-03-14T10:42:57;15.40;;;1.90;;
70605;SDS011;58173;52.500;5.494;2023-03-14T10:45:31;13.90;;;1.73;;
70605;SDS011;58173;52.500;5.494;2023-03-14T10:48:17;15.73;;;1.77;;
70605;SDS011;58173;52.500;5.494;2023-03-14T10:53:24;13.60;;;1.85;;
70605;SDS011;58173;52.500;5.494;2023-03-14T10:55:53;12.90;;;1.85;;
70605;SDS011;58173;52.500;5.494;2023-03-14T10:58:23;16.05;;;2.10;;
70605;SDS011;58173;52.500;5.494;2023-03-14T11:06:47;9.23;;;1.70;;
70605;SDS011;58173;52.500;5.494;2023-03-14T11:12:16;10.38;;;1.52;;
70605;SDS011;58173;52.500;5.494;2023-03-14T11:14:46;10.63;;;1.70;;
70605;SDS011;58173;52.500;5.494;2023-03-14T11:17:23;11.27;;;1.50;;
70605;SDS011;58173;52.500;5.494;2023-03-14T11:20:04;10.57;;;1.42;;
70605;SDS011;58173;52.500;5.494;2023-03-14T11:23:01;14.18;;;1.48;;
70605;SDS011;58173;52.500;5.494;2023-03-14T11:28:17;8.80;;;1.50;;
70605;SDS011;58173;52.500;5.494;2023-03-14T11:30:52;8.48;;;0.98;;
70605;SDS011;58173;52.500;5.494;2023-03-14T11:36:39;19.10;;;1.70;;
70605;SDS011;58173;52.500;5.494;2023-03-14T11:39:14;11.73;;;1.60;;
70605;SDS011;58173;52.500;5.494;2023-03-14T11:41:51;10.55;;;1.38;;
70605;SDS011;58173;52.500;5.494;2023-03-14T11:44:22;11.57;;;1.75;;
70605;SDS011;58173;52.500;5.494;2023-03-14T11:49:49;12.75;;;1.90;;
70605;SDS011;58173;52.500;5.494;2023-03-14T11:55:16;11.27;;;1.60;;
70605;SDS011;58173;52.500;5.494;2023-03-14T11:57:53;8.95;;;1.48;;
70605;SDS011;58173;52.500;5.494;2023-03-14T12:00:24;8.13;;;1.10;;
70605;SDS011;58173;52.500;5.494;2023-03-14T12:11:30;8.20;;;1.20;;
70605;SDS011;58173;52.500;5.494;2023-03-14T12:19:46;7.55;;;1.20;;
70605;SDS011;58173;52.500;5.494;2023-03-14T12:22:27;9.40;;;1.50;;
70605;SDS011;58173;52.500;5.494;2023-03-14T12:24:57;5.95;;;1.27;;
70605;SDS011;58173;52.500;5.494;2023-03-14T12:27:42;8.63;;;1.10;;
70605;SDS011;58173;52.500;5.494;2023-03-14T12:30:17;8.40;;;1.20;;
70605;SDS011;58173;52.500;5.494;2023-03-14T12:33:10;6.85;;;1.23;;
70605;SDS011;58173;52.500;5.494;2023-03-14T12:41:04;8.48;;;1.42;;
70605;SDS011;58173;52.500;5.494;2023-03-14T12:43:33;5.30;;;0.85;;
70605;SDS011;58173;52.500;5.494;2023-03-14T13:03:41;4.82;;;1.10;;
70605;SDS011;58173;52.500;5.494;2023-03-14T13:12:23;7.03;;;1.30;;
70605;SDS011;58173;52.500;5.494;2023-03-14T13:14:54;9.60;;;1.00;;
70605;SDS011;58173;52.500;5.494;2023-03-14T13:17:27;6.75;;;1.23;;
70605;SDS011;58173;52.500;5.494;2023-03-14T13:20:05;9.20;;;0.98;;
70605;SDS011;58173;52.500;5.494;2023-03-14T13:22:39;7.97;;;1.30;;
70605;SDS011;58173;52.500;5.494;2023-03-14T13:25:13;7.65;;;1.13;;
70605;SDS011;58173;52.500;5.494;2023-03-14T13:27:40;5.28;;;0.90;;
70605;SDS011;58173;52.500;5.494;2023-03-14T13:30:15;5.57;;;1.15;;
70605;SDS011;58173;52.500;5.494;2023-03-14T13:32:44;8.50;;;1.20;;
70605;SDS011;58173;52.500;5.494;2023-03-14T13:35:14;8.25;;;1.17;;
70605;SDS011;58173;52.500;5.494;2023-03-14T13:37:47;7.07;;;1.20;;
70605;SDS011;58173;52.500;5.494;2023-03-14T13:40:33;8.05;;;1.17;;
70605;SDS011;58173;52.500;5.494;2023-03-14T13:43:05;9.07;;;0.82;;
70605;SDS011;58173;52.500;5.494;2023-03-14T13:45:52;5.93;;;1.05;;
70605;SDS011;58173;52.500;5.494;2023-03-14T13:48:25;6.53;;;1.15;;
70605;SDS011;58173;52.500;5.494;2023-03-14T13:51:16;10.00;;;1.00;;
70605;SDS011;58173;52.500;5.494;2023-03-14T13:56:12;8.65;;;1.00;;
70605;SDS011;58173;52.500;5.494;2023-03-14T13:58:39;5.57;;;1.10;;
70605;SDS011;58173;52.500;5.494;2023-03-14T14:01:20;8.38;;;1.00;;
70605;SDS011;58173;52.500;5.494;2023-03-14T14:03:50;6.70;;;1.10;;
70605;SDS011;58173;52.500;5.494;2023-03-14T14:09:19;7.07;;;0.90;;
70605;SDS011;58173;52.500;5.494;2023-03-14T14:14:50;6.07;;;0.98;;
70605;SDS011;58173;52.500;5.494;2023-03-14T14:17:25;8.40;;;1.08;;
70605;SDS011;58173;52.500;5.494;2023-03-14T14:19:59;7.65;;;1.30;;
70605;SDS011;58173;52.500;5.494;2023-03-14T14:23:09;8.57;;;1.50;;
70605;SDS011;58173;52.500;5.494;2023-03-14T14:25:45;8.88;;;1.27;;
70605;SDS011;58173;52.500;5.494;2023-03-14T14:33:43;8.05;;;0.93;;
70605;SDS011;58173;52.500;5.494;2023-03-14T14:36:14;8.18;;;1.08;;
70605;SDS011;58173;52.500;5.494;2023-03-14T14:38:50;6.40;;;1.33;;
70605;SDS011;58173;52.500;5.494;2023-03-14T14:41:19;7.38;;;1.30;;
70605;SDS011;58173;52.500;5.494;2023-03-14T14:43:47;8.18;;;1.15;;
70605;SDS011;58173;52.500;5.494;2023-03-14T14:46:26;5.13;;;1.10;;
70605;SDS011;58173;52.500;5.494;2023-03-14T14:48:57;8.93;;;1.10;;
70605;SDS011;58173;52.500;5.494;2023-03-14T14:51:34;5.78;;;0.80;;
70605;SDS011;58173;52.500;5.494;2023-03-14T14:57:04;6.63;;;1.17;;
70605;SDS011;58173;52.500;5.494;2023-03-14T14:59:43;6.60;;;1.02;;
70605;SDS011;58173;52.500;5.494;2023-03-14T15:02:31;5.35;;;0.93;;
70605;SDS011;58173;52.500;5.494;2023-03-14T15:05:11;5.13;;;1.25;;
70605;SDS011;58173;52.500;5.494;2023-03-14T15:07:43;5.90;;;0.82;;
70605;SDS011;58173;52.500;5.494;2023-03-14T15:10:11;9.52;;;1.15;;
70605;SDS011;58173;52.500;5.494;2023-03-14T15:12:40;7.95;;;1.10;;
70605;SDS011;58173;52.500;5.494;2023-03-14T15:15:07;7.28;;;1.10;;
70605;SDS011;58173;52.500;5.494;2023-03-14T15:17:35;9.93;;;1.27;;
70605;SDS011;58173;52.500;5.494;2023-03-14T15:20:03;8.93;;;1.20;;
70605;SDS011;58173;52.500;5.494;2023-03-14T15:22:33;10.35;;;1.25;;
70605;SDS011;58173;52.500;5.494;2023-03-14T15:25:00;10.57;;;1.50;;
70605;SDS011;58173;52.500;5.494;2023-03-14T15:27:27;8.02;;;1.33;;
70605;SDS011;58173;52.500;5.494;2023-03-14T15:29:56;11.77;;;1.40;;
70605;SDS011;58173;52.500;5.494;2023-03-14T15:32:23;9.73;;;1.20;;
70605;SDS011;58173;52.500;5.494;2023-03-14T15:34:50;6.85;;;1.20;;
70605;SDS011;58173;52.500;5.494;2023-03-14T15:37:17;9.40;;;1.15;;
70605;SDS011;58173;52.500;5.494;2023-03-14T15:39:47;7.30;;;0.93;;
70605;SDS011;58173;52.500;5.494;2023-03-14T15:42:14;7.65;;;1.02;;
70605;SDS011;58173;52.500;5.494;2023-03-14T15:44:41;9.32;;;1.20;;
70605;SDS011;58173;52.500;5.494;2023-03-14T15:47:09;5.05;;;1.15;;
70605;SDS011;58173;52.500;5.494;2023-03-14T15:49:37;11.98;;;1.70;;
70605;SDS011;58173;52.500;5.494;2023-03-14T15:52:04;8.60;;;1.25;;
70605;SDS011;58173;52.500;5.494;2023-03-14T15:54:34;6.07;;;1.23;;
70605;SDS011;58173;52.500;5.494;2023-03-14T15:57:01;6.85;;;1.13;;
70605;SDS011;58173;52.500;5.494;2023-03-14T15:59:28;10.48;;;1.10;;
70605;SDS011;58173;52.500;5.494;2023-03-14T16:01:55;9.32;;;1.27;;
70605;SDS011;58173;52.500;5.494;2023-03-14T16:04:21;5.43;;;1.10;;
70605;SDS011;58173;52.500;5.494;2023-03-14T16:06:48;7.28;;;1.17;;
70605;SDS011;58173;52.500;5.494;2023-03-14T16:09:15;10.90;;;1.42;;
70605;SDS011;58173;52.500;5.494;2023-03-14T16:11:42;13.95;;;1.20;;
70605;SDS011;58173;52.500;5.494;2023-03-14T16:14:12;10.00;;;1.20;;
70605;SDS011;58173;52.500;5.494;2023-03-14T16:16:39;7.82;;;1.15;;
70605;SDS011;58173;52.500;5.494;2023-03-14T16:19:06;9.00;;;1.10;;
70605;SDS011;58173;52.500;5.494;2023-03-14T16:21:33;7.93;;;1.50;;
70605;SDS011;58173;52.500;5.494;2023-03-14T16:24:00;11.05;;;1.67;;
70605;SDS011;58173;52.500;5.494;2023-03-14T16:26:28;11.05;;;1.50;;
70605;SDS011;58173;52.500;5.494;2023-03-14T16:28:55;10.57;;;1.60;;
70605;SDS011;58173;52.500;5.494;2023-03-14T16:31:22;8.75;;;1.40;;
70605;SDS011;58173;52.500;5.494;2023-03-14T16:33:51;7.47;;;1.30;;
70605;SDS011;58173;52.500;5.494;2023-03-14T16:36:18;9.73;;;1.25;;
70605;SDS011;58173;52.500;5.494;2023-03-14T16:38:45;10.25;;;1.50;;
70605;SDS011;58173;52.500;5.494;2023-03-14T16:41:16;11.63;;;1.15;;
70605;SDS011;58173;52.500;5.494;2023-03-14T16:43:44;7.88;;;1.38;;
70605;SDS011;58173;52.500;5.494;2023-03-14T16:46:15;9.93;;;1.20;;
70605;SDS011;58173;52.500;5.494;2023-03-14T16:48:45;6.57;;;1.35;;
70605;SDS011;58173;52.500;5.494;2023-03-14T16:51:12;7.43;;;1.10;;